sensor_id;sensor_type;location;lat;lon;timestamp;P1;durP1;ratioP1;P2;durP2;ratioP2
53652;SDS011;39553;52.954;5.932;2023-03-01T00:01:17;34.63;;;19.20;;
53652;SDS011;39553;52.954;5.932;2023-03-01T00:03:45;38.60;;;18.85;;
53652;SDS011;39553;52.954;5.932;2023-03-01T00:06:11;42.00;;;19.65;;
53652;SDS011;39553;52.954;5.932;2023-03-01T00:08:37;36.05;;;19.67;;
53652;SDS011;39553;52.954;5.932;2023-03-01T00:13:37;41.70;;;20.25;;
53652;SDS011;39553;52.954;5.932;2023-03-01T00:16:05;42.10;;;20.98;;
53652;SDS011;39553;52.954;5.932;2023-03-01T00:18:32;33.78;;;17.83;;
53652;SDS011;39553;52.954;5.932;2023-03-01T00:21:00;36.90;;;19.20;;
53652;SDS011;39553;52.954;5.932;2023-03-01T00:23:26;37.78;;;17.95;;
53652;SDS011;39553;52.954;5.932;2023-03-01T00:25:52;38.35;;;19.50;;
53652;SDS011;39553;52.954;5.932;2023-03-01T00:28:18;33.10;;;18.77;;
53652;SDS011;39553;52.954;5.932;2023-03-01T00:30:44;35.70;;;19.05;;
53652;SDS011;39553;52.954;5.932;2023-03-01T00:33:12;35.85;;;19.33;;
53652;SDS011;39553;52.954;5.932;2023-03-01T00:35:38;39.63;;;19.40;;
53652;SDS011;39553;52.954;5.932;2023-03-01T00:38:08;33.55;;;19.15;;
53652;SDS011;39553;52.954;5.932;2023-03-01T00:40:34;37.80;;;19.00;;
53652;SDS011;39553;52.954;5.932;2023-03-01T00:43:03;37.50;;;18.95;;
53652;SDS011;39553;52.954;5.932;2023-03-01T00:45:29;40.38;;;19.38;;
53652;SDS011;39553;52.954;5.932;2023-03-01T00:47:58;33.38;;;18.20;;
53652;SDS011;39553;52.954;5.932;2023-03-01T00:50:25;39.47;;;19.08;;
53652;SDS011;39553;52.954;5.932;2023-03-01T00:52:54;36.63;;;19.42;;
53652;SDS011;39553;52.954;5.932;2023-03-01T00:55:21;45.03;;;18.25;;
53652;SDS011;39553;52.954;5.932;2023-03-01T00:57:47;35.88;;;18.23;;
53652;SDS011;39553;52.954;5.932;2023-03-01T01:00:13;35.00;;;18.20;;
53652;SDS011;39553;52.954;5.932;2023-03-01T01:02:39;39.88;;;18.60;;
53652;SDS011;39553;52.954;5.932;2023-03-01T01:05:05;37.92;;;19.02;;
53652;SDS011;39553;52.954;5.932;2023-03-01T01:07:31;40.42;;;19.23;;
53652;SDS011;39553;52.954;5.932;2023-03-01T01:09:56;36.70;;;19.27;;
53652;SDS011;39553;52.954;5.932;2023-03-01T01:12:22;35.50;;;19.63;;
53652;SDS011;39553;52.954;5.932;2023-03-01T01:14:48;39.53;;;19.27;;
53652;SDS011;39553;52.954;5.932;2023-03-01T01:17:13;38.42;;;19.17;;
53652;SDS011;39553;52.954;5.932;2023-03-01T01:19:45;34.15;;;18.05;;
53652;SDS011;39553;52.954;5.932;2023-03-01T01:22:11;33.00;;;18.05;;
53652;SDS011;39553;52.954;5.932;2023-03-01T01:24:37;36.85;;;19.67;;
53652;SDS011;39553;52.954;5.932;2023-03-01T01:27:02;35.17;;;19.77;;
53652;SDS011;39553;52.954;5.932;2023-03-01T01:29:29;39.60;;;19.00;;
53652;SDS011;39553;52.954;5.932;2023-03-01T01:31:55;37.10;;;18.95;;
53652;SDS011;39553;52.954;5.932;2023-03-01T01:34:21;33.47;;;18.60;;
53652;SDS011;39553;52.954;5.932;2023-03-01T01:36:48;37.13;;;20.40;;
53652;SDS011;39553;52.954;5.932;2023-03-01T01:39:14;36.95;;;19.00;;
53652;SDS011;39553;52.954;5.932;2023-03-01T01:41:40;36.38;;;18.20;;
53652;SDS011;39553;52.954;5.932;2023-03-01T01:44:10;40.85;;;21.25;;
53652;SDS011;39553;52.954;5.932;2023-03-01T01:46:49;43.63;;;20.52;;
53652;SDS011;39553;52.954;5.932;2023-03-01T01:51:58;42.17;;;19.98;;
53652;SDS011;39553;52.954;5.932;2023-03-01T01:55:13;42.05;;;21.58;;
53652;SDS011;39553;52.954;5.932;2023-03-01T01:57:34;37.75;;;19.98;;
53652;SDS011;39553;52.954;5.932;2023-03-01T02:00:22;41.58;;;20.30;;
53652;SDS011;39553;52.954;5.932;2023-03-01T02:02:51;41.75;;;20.83;;
53652;SDS011;39553;52.954;5.932;2023-03-01T02:08:26;41.83;;;20.48;;
53652;SDS011;39553;52.954;5.932;2023-03-01T02:10:55;47.50;;;22.13;;
53652;SDS011;39553;52.954;5.932;2023-03-01T02:13:25;38.80;;;20.13;;
53652;SDS011;39553;52.954;5.932;2023-03-01T02:15:51;34.92;;;18.02;;
53652;SDS011;39553;52.954;5.932;2023-03-01T02:18:18;45.85;;;19.48;;
53652;SDS011;39553;52.954;5.932;2023-03-01T02:21:00;37.67;;;20.98;;
53652;SDS011;39553;52.954;5.932;2023-03-01T02:23:44;38.97;;;19.80;;
53652;SDS011;39553;52.954;5.932;2023-03-01T02:29:03;45.92;;;21.50;;
53652;SDS011;39553;52.954;5.932;2023-03-01T02:31:30;45.17;;;20.05;;
53652;SDS011;39553;52.954;5.932;2023-03-01T02:34:17;36.95;;;19.00;;
53652;SDS011;39553;52.954;5.932;2023-03-01T02:36:53;32.67;;;16.55;;
53652;SDS011;39553;52.954;5.932;2023-03-01T02:39:24;37.65;;;17.20;;
53652;SDS011;39553;52.954;5.932;2023-03-01T02:42:13;30.17;;;15.65;;
53652;SDS011;39553;52.954;5.932;2023-03-01T02:44:41;61.38;;;20.20;;
53652;SDS011;39553;52.954;5.932;2023-03-01T02:47:07;41.20;;;19.98;;
53652;SDS011;39553;52.954;5.932;2023-03-01T02:49:36;78.53;;;24.10;;
53652;SDS011;39553;52.954;5.932;2023-03-01T02:55:09;41.40;;;20.42;;
53652;SDS011;39553;52.954;5.932;2023-03-01T02:57:38;64.70;;;22.83;;
53652;SDS011;39553;52.954;5.932;2023-03-01T03:00:07;61.75;;;22.70;;
53652;SDS011;39553;52.954;5.932;2023-03-01T03:02:49;47.95;;;17.05;;
53652;SDS011;39553;52.954;5.932;2023-03-01T03:05:20;135.88;;;36.25;;
53652;SDS011;39553;52.954;5.932;2023-03-01T03:07:48;145.50;;;36.85;;
53652;SDS011;39553;52.954;5.932;2023-03-01T03:10:15;115.95;;;26.15;;
53652;SDS011;39553;52.954;5.932;2023-03-01T03:12:44;124.55;;;23.30;;
53652;SDS011;39553;52.954;5.932;2023-03-01T03:15:17;105.07;;;25.70;;
53652;SDS011;39553;52.954;5.932;2023-03-01T03:17:45;74.60;;;28.17;;
53652;SDS011;39553;52.954;5.932;2023-03-01T03:20:13;135.52;;;26.45;;
53652;SDS011;39553;52.954;5.932;2023-03-01T03:22:44;182.02;;;31.85;;
53652;SDS011;39553;52.954;5.932;2023-03-01T03:25:11;145.98;;;33.67;;
53652;SDS011;39553;52.954;5.932;2023-03-01T03:27:39;102.20;;;22.65;;
53652;SDS011;39553;52.954;5.932;2023-03-01T03:30:08;179.98;;;25.02;;
53652;SDS011;39553;52.954;5.932;2023-03-01T03:32:40;133.32;;;30.10;;
53652;SDS011;39553;52.954;5.932;2023-03-01T03:35:17;184.02;;;25.92;;
53652;SDS011;39553;52.954;5.932;2023-03-01T03:37:47;317.98;;;57.25;;
53652;SDS011;39553;52.954;5.932;2023-03-01T03:40:33;236.80;;;30.75;;
53652;SDS011;39553;52.954;5.932;2023-03-01T03:43:04;209.35;;;34.35;;
53652;SDS011;39553;52.954;5.932;2023-03-01T03:45:32;68.50;;;19.77;;
53652;SDS011;39553;52.954;5.932;2023-03-01T03:47:58;205.85;;;29.48;;
53652;SDS011;39553;52.954;5.932;2023-03-01T03:50:25;97.93;;;21.00;;
53652;SDS011;39553;52.954;5.932;2023-03-01T03:52:51;171.25;;;26.08;;
53652;SDS011;39553;52.954;5.932;2023-03-01T03:55:17;40.97;;;19.08;;
53652;SDS011;39553;52.954;5.932;2023-03-01T03:57:44;103.68;;;21.30;;
53652;SDS011;39553;52.954;5.932;2023-03-01T04:00:19;101.88;;;18.92;;
53652;SDS011;39553;52.954;5.932;2023-03-01T04:02:49;107.72;;;19.20;;
53652;SDS011;39553;52.954;5.932;2023-03-01T04:05:17;135.05;;;20.17;;
53652;SDS011;39553;52.954;5.932;2023-03-01T04:07:44;131.05;;;21.13;;
53652;SDS011;39553;52.954;5.932;2023-03-01T04:10:14;110.18;;;18.90;;
53652;SDS011;39553;52.954;5.932;2023-03-01T04:12:41;158.65;;;21.08;;
53652;SDS011;39553;52.954;5.932;2023-03-01T04:15:11;136.80;;;21.42;;
53652;SDS011;39553;52.954;5.932;2023-03-01T04:17:40;75.80;;;16.83;;
53652;SDS011;39553;52.954;5.932;2023-03-01T04:20:08;102.90;;;19.58;;
53652;SDS011;39553;52.954;5.932;2023-03-01T04:22:51;84.05;;;17.05;;
53652;SDS011;39553;52.954;5.932;2023-03-01T04:28:21;81.85;;;16.05;;
53652;SDS011;39553;52.954;5.932;2023-03-01T04:30:49;80.38;;;18.30;;
53652;SDS011;39553;52.954;5.932;2023-03-01T04:33:16;64.28;;;15.20;;
53652;SDS011;39553;52.954;5.932;2023-03-01T04:35:43;102.05;;;15.20;;
53652;SDS011;39553;52.954;5.932;2023-03-01T04:38:09;93.25;;;17.42;;
53652;SDS011;39553;52.954;5.932;2023-03-01T04:40:35;80.40;;;14.15;;
53652;SDS011;39553;52.954;5.932;2023-03-01T04:43:01;76.93;;;15.60;;
53652;SDS011;39553;52.954;5.932;2023-03-01T04:45:27;110.32;;;16.17;;
53652;SDS011;39553;52.954;5.932;2023-03-01T04:47:53;86.18;;;15.48;;
53652;SDS011;39553;52.954;5.932;2023-03-01T04:50:19;78.63;;;15.80;;
53652;SDS011;39553;52.954;5.932;2023-03-01T04:52:46;65.93;;;14.10;;
53652;SDS011;39553;52.954;5.932;2023-03-01T04:55:12;88.43;;;14.57;;
53652;SDS011;39553;52.954;5.932;2023-03-01T04:57:39;84.15;;;14.90;;
53652;SDS011;39553;52.954;5.932;2023-03-01T05:00:06;87.80;;;14.48;;
53652;SDS011;39553;52.954;5.932;2023-03-01T05:02:46;55.78;;;13.32;;
53652;SDS011;39553;52.954;5.932;2023-03-01T05:05:14;40.30;;;13.15;;
53652;SDS011;39553;52.954;5.932;2023-03-01T05:07:40;53.40;;;13.45;;
53652;SDS011;39553;52.954;5.932;2023-03-01T05:10:06;37.45;;;13.80;;
53652;SDS011;39553;52.954;5.932;2023-03-01T05:12:33;44.13;;;13.90;;
53652;SDS011;39553;52.954;5.932;2023-03-01T05:14:59;33.00;;;11.88;;
53652;SDS011;39553;52.954;5.932;2023-03-01T05:17:25;29.65;;;12.32;;
53652;SDS011;39553;52.954;5.932;2023-03-01T05:19:51;37.70;;;11.90;;
53652;SDS011;39553;52.954;5.932;2023-03-01T05:22:16;58.22;;;13.88;;
53652;SDS011;39553;52.954;5.932;2023-03-01T05:24:42;56.45;;;13.27;;
53652;SDS011;39553;52.954;5.932;2023-03-01T05:27:08;27.17;;;11.88;;
53652;SDS011;39553;52.954;5.932;2023-03-01T05:29:38;21.10;;;11.55;;
53652;SDS011;39553;52.954;5.932;2023-03-01T05:32:05;18.67;;;11.07;;
53652;SDS011;39553;52.954;5.932;2023-03-01T05:34:32;19.40;;;11.55;;
53652;SDS011;39553;52.954;5.932;2023-03-01T05:37:00;17.98;;;11.35;;
53652;SDS011;39553;52.954;5.932;2023-03-01T05:39:27;16.40;;;11.32;;
53652;SDS011;39553;52.954;5.932;2023-03-01T05:41:57;17.45;;;10.88;;
53652;SDS011;39553;52.954;5.932;2023-03-01T05:44:25;16.65;;;10.57;;
53652;SDS011;39553;52.954;5.932;2023-03-01T05:46:52;19.17;;;11.43;;
53652;SDS011;39553;52.954;5.932;2023-03-01T05:49:24;20.48;;;11.35;;
53652;SDS011;39553;52.954;5.932;2023-03-01T05:51:53;18.58;;;11.25;;
53652;SDS011;39553;52.954;5.932;2023-03-01T05:54:20;21.80;;;12.10;;
53652;SDS011;39553;52.954;5.932;2023-03-01T05:56:47;17.70;;;11.27;;
53652;SDS011;39553;52.954;5.932;2023-03-01T05:59:13;20.88;;;11.57;;
53652;SDS011;39553;52.954;5.932;2023-03-01T06:01:41;19.05;;;11.52;;
53652;SDS011;39553;52.954;5.932;2023-03-01T06:04:07;18.95;;;11.43;;
53652;SDS011;39553;52.954;5.932;2023-03-01T06:06:35;20.77;;;12.00;;
53652;SDS011;39553;52.954;5.932;2023-03-01T06:09:04;21.35;;;12.75;;
53652;SDS011;39553;52.954;5.932;2023-03-01T06:11:33;22.60;;;12.60;;
53652;SDS011;39553;52.954;5.932;2023-03-01T06:14:00;20.42;;;11.90;;
53652;SDS011;39553;52.954;5.932;2023-03-01T06:16:25;21.55;;;12.18;;
53652;SDS011;39553;52.954;5.932;2023-03-01T06:18:54;20.73;;;11.73;;
53652;SDS011;39553;52.954;5.932;2023-03-01T06:21:20;21.02;;;12.18;;
53652;SDS011;39553;52.954;5.932;2023-03-01T06:23:46;22.73;;;12.07;;
53652;SDS011;39553;52.954;5.932;2023-03-01T06:26:12;20.73;;;12.90;;
53652;SDS011;39553;52.954;5.932;2023-03-01T06:28:38;22.77;;;13.10;;
53652;SDS011;39553;52.954;5.932;2023-03-01T06:31:05;19.75;;;11.48;;
53652;SDS011;39553;52.954;5.932;2023-03-01T06:33:33;20.92;;;13.02;;
53652;SDS011;39553;52.954;5.932;2023-03-01T06:35:59;22.55;;;12.57;;
53652;SDS011;39553;52.954;5.932;2023-03-01T06:38:25;23.10;;;12.38;;
53652;SDS011;39553;52.954;5.932;2023-03-01T06:40:52;23.20;;;13.02;;
53652;SDS011;39553;52.954;5.932;2023-03-01T06:43:19;23.38;;;12.75;;
53652;SDS011;39553;52.954;5.932;2023-03-01T06:45:48;21.25;;;12.95;;
53652;SDS011;39553;52.954;5.932;2023-03-01T06:48:14;22.85;;;13.77;;
53652;SDS011;39553;52.954;5.932;2023-03-01T06:50:45;20.77;;;13.00;;
53652;SDS011;39553;52.954;5.932;2023-03-01T06:53:12;22.65;;;12.95;;
53652;SDS011;39553;52.954;5.932;2023-03-01T06:55:39;20.17;;;12.60;;
53652;SDS011;39553;52.954;5.932;2023-03-01T06:58:05;20.45;;;12.95;;
53652;SDS011;39553;52.954;5.932;2023-03-01T07:00:34;21.83;;;12.30;;
53652;SDS011;39553;52.954;5.932;2023-03-01T07:03:01;23.13;;;14.75;;
53652;SDS011;39553;52.954;5.932;2023-03-01T07:05:28;24.45;;;13.63;;
53652;SDS011;39553;52.954;5.932;2023-03-01T07:07:55;23.25;;;13.63;;
53652;SDS011;39553;52.954;5.932;2023-03-01T07:10:21;22.77;;;14.18;;
53652;SDS011;39553;52.954;5.932;2023-03-01T07:12:47;23.30;;;12.57;;
53652;SDS011;39553;52.954;5.932;2023-03-01T07:15:13;24.30;;;13.57;;
53652;SDS011;39553;52.954;5.932;2023-03-01T07:17:40;23.77;;;14.48;;
53652;SDS011;39553;52.954;5.932;2023-03-01T07:20:09;23.55;;;14.18;;
53652;SDS011;39553;52.954;5.932;2023-03-01T07:22:39;23.20;;;13.57;;
53652;SDS011;39553;52.954;5.932;2023-03-01T07:25:06;22.50;;;14.00;;
53652;SDS011;39553;52.954;5.932;2023-03-01T07:27:34;26.50;;;14.27;;
53652;SDS011;39553;52.954;5.932;2023-03-01T07:30:02;21.75;;;13.65;;
53652;SDS011;39553;52.954;5.932;2023-03-01T07:32:30;22.60;;;13.25;;
53652;SDS011;39553;52.954;5.932;2023-03-01T07:34:59;25.95;;;14.82;;
53652;SDS011;39553;52.954;5.932;2023-03-01T07:37:28;25.58;;;14.43;;
53652;SDS011;39553;52.954;5.932;2023-03-01T07:40:06;25.15;;;14.10;;
53652;SDS011;39553;52.954;5.932;2023-03-01T07:42:33;22.65;;;14.27;;
53652;SDS011;39553;52.954;5.932;2023-03-01T07:45:05;25.52;;;15.32;;
53652;SDS011;39553;52.954;5.932;2023-03-01T07:47:32;23.23;;;13.40;;
53652;SDS011;39553;52.954;5.932;2023-03-01T07:49:58;24.85;;;14.57;;
53652;SDS011;39553;52.954;5.932;2023-03-01T07:52:24;25.23;;;15.02;;
53652;SDS011;39553;52.954;5.932;2023-03-01T07:54:50;27.35;;;14.93;;
53652;SDS011;39553;52.954;5.932;2023-03-01T07:57:16;21.67;;;13.82;;
53652;SDS011;39553;52.954;5.932;2023-03-01T07:59:42;20.98;;;13.23;;
53652;SDS011;39553;52.954;5.932;2023-03-01T08:02:09;27.17;;;14.60;;
53652;SDS011;39553;52.954;5.932;2023-03-01T08:04:36;25.38;;;14.73;;
53652;SDS011;39553;52.954;5.932;2023-03-01T08:07:04;26.85;;;15.02;;
53652;SDS011;39553;52.954;5.932;2023-03-01T08:09:31;22.92;;;14.82;;
53652;SDS011;39553;52.954;5.932;2023-03-01T08:12:08;23.52;;;14.35;;
53652;SDS011;39553;52.954;5.932;2023-03-01T08:14:37;27.10;;;15.75;;
53652;SDS011;39553;52.954;5.932;2023-03-01T08:17:03;26.38;;;14.57;;
53652;SDS011;39553;52.954;5.932;2023-03-01T08:19:30;26.75;;;16.08;;
53652;SDS011;39553;52.954;5.932;2023-03-01T08:22:03;27.95;;;15.70;;
53652;SDS011;39553;52.954;5.932;2023-03-01T08:24:29;31.35;;;16.10;;
53652;SDS011;39553;52.954;5.932;2023-03-01T08:26:55;30.67;;;17.58;;
53652;SDS011;39553;52.954;5.932;2023-03-01T08:29:21;32.75;;;17.85;;
53652;SDS011;39553;52.954;5.932;2023-03-01T08:31:47;31.05;;;18.00;;
53652;SDS011;39553;52.954;5.932;2023-03-01T08:34:14;35.70;;;18.17;;
53652;SDS011;39553;52.954;5.932;2023-03-01T08:36:42;34.15;;;20.48;;
53652;SDS011;39553;52.954;5.932;2023-03-01T08:39:13;41.50;;;20.35;;
53652;SDS011;39553;52.954;5.932;2023-03-01T08:41:40;41.80;;;20.08;;
53652;SDS011;39553;52.954;5.932;2023-03-01T08:44:07;40.08;;;20.00;;
53652;SDS011;39553;52.954;5.932;2023-03-01T08:46:36;46.22;;;21.00;;
53652;SDS011;39553;52.954;5.932;2023-03-01T08:49:07;36.97;;;20.90;;
53652;SDS011;39553;52.954;5.932;2023-03-01T08:51:34;39.28;;;21.70;;
53652;SDS011;39553;52.954;5.932;2023-03-01T08:54:12;45.63;;;21.67;;
53652;SDS011;39553;52.954;5.932;2023-03-01T08:56:40;40.78;;;20.15;;
53652;SDS011;39553;52.954;5.932;2023-03-01T08:59:06;40.70;;;20.67;;
53652;SDS011;39553;52.954;5.932;2023-03-01T09:01:32;38.92;;;20.52;;
53652;SDS011;39553;52.954;5.932;2023-03-01T09:03:58;37.50;;;20.42;;
53652;SDS011;39553;52.954;5.932;2023-03-01T09:06:24;41.65;;;20.15;;
53652;SDS011;39553;52.954;5.932;2023-03-01T09:08:50;43.65;;;19.55;;
53652;SDS011;39553;52.954;5.932;2023-03-01T09:11:17;38.13;;;19.85;;
53652;SDS011;39553;52.954;5.932;2023-03-01T09:13:44;35.20;;;19.25;;
53652;SDS011;39553;52.954;5.932;2023-03-01T09:16:12;29.15;;;17.80;;
53652;SDS011;39553;52.954;5.932;2023-03-01T09:18:39;26.95;;;16.35;;
53652;SDS011;39553;52.954;5.932;2023-03-01T09:21:10;29.25;;;16.55;;
53652;SDS011;39553;52.954;5.932;2023-03-01T09:23:41;22.48;;;14.38;;
53652;SDS011;39553;52.954;5.932;2023-03-01T09:26:10;20.95;;;12.70;;
53652;SDS011;39553;52.954;5.932;2023-03-01T09:28:38;19.92;;;13.32;;
53652;SDS011;39553;52.954;5.932;2023-03-01T09:31:06;24.73;;;13.30;;
53652;SDS011;39553;52.954;5.932;2023-03-01T09:33:32;20.33;;;13.13;;
53652;SDS011;39553;52.954;5.932;2023-03-01T09:35:59;20.63;;;12.40;;
53652;SDS011;39553;52.954;5.932;2023-03-01T09:38:27;20.45;;;13.43;;
53652;SDS011;39553;52.954;5.932;2023-03-01T09:40:53;21.38;;;12.77;;
53652;SDS011;39553;52.954;5.932;2023-03-01T09:43:21;18.67;;;12.98;;
53652;SDS011;39553;52.954;5.932;2023-03-01T09:46:09;21.05;;;12.38;;
53652;SDS011;39553;52.954;5.932;2023-03-01T09:48:58;18.60;;;11.40;;
53652;SDS011;39553;52.954;5.932;2023-03-01T09:51:55;19.83;;;11.43;;
53652;SDS011;39553;52.954;5.932;2023-03-01T09:54:40;19.25;;;11.73;;
53652;SDS011;39553;52.954;5.932;2023-03-01T09:57:19;15.88;;;12.05;;
53652;SDS011;39553;52.954;5.932;2023-03-01T09:59:58;18.27;;;12.32;;
53652;SDS011;39553;52.954;5.932;2023-03-01T10:02:56;16.23;;;12.05;;
53652;SDS011;39553;52.954;5.932;2023-03-01T10:08:40;16.55;;;10.32;;
53652;SDS011;39553;52.954;5.932;2023-03-01T10:16:43;15.60;;;10.95;;
53652;SDS011;39553;52.954;5.932;2023-03-01T10:19:24;17.52;;;11.35;;
53652;SDS011;39553;52.954;5.932;2023-03-01T10:21:57;14.65;;;11.43;;
53652;SDS011;39553;52.954;5.932;2023-03-01T10:24:30;15.65;;;12.13;;
53652;SDS011;39553;52.954;5.932;2023-03-01T10:27:05;17.08;;;12.23;;
53652;SDS011;39553;52.954;5.932;2023-03-01T10:29:47;13.57;;;10.80;;
53652;SDS011;39553;52.954;5.932;2023-03-01T10:32:18;16.27;;;11.65;;
53652;SDS011;39553;52.954;5.932;2023-03-01T10:34:45;15.18;;;11.70;;
53652;SDS011;39553;52.954;5.932;2023-03-01T10:37:15;15.77;;;12.88;;
53652;SDS011;39553;52.954;5.932;2023-03-01T10:42:35;16.23;;;12.57;;
53652;SDS011;39553;52.954;5.932;2023-03-01T10:48:11;13.60;;;10.68;;
53652;SDS011;39553;52.954;5.932;2023-03-01T10:53:33;14.50;;;9.70;;
53652;SDS011;39553;52.954;5.932;2023-03-01T10:56:11;13.45;;;10.77;;
53652;SDS011;39553;52.954;5.932;2023-03-01T10:58:39;13.30;;;10.13;;
53652;SDS011;39553;52.954;5.932;2023-03-01T11:06:32;16.15;;;9.77;;
53652;SDS011;39553;52.954;5.932;2023-03-01T11:09:18;15.98;;;10.85;;
53652;SDS011;39553;52.954;5.932;2023-03-01T11:11:51;12.35;;;9.48;;
53652;SDS011;39553;52.954;5.932;2023-03-01T11:14:37;16.02;;;9.93;;
53652;SDS011;39553;52.954;5.932;2023-03-01T11:17:24;15.25;;;9.88;;
53652;SDS011;39553;52.954;5.932;2023-03-01T11:20:39;16.45;;;11.18;;
53652;SDS011;39553;52.954;5.932;2023-03-01T11:22:54;14.75;;;10.65;;
53652;SDS011;39553;52.954;5.932;2023-03-01T11:25:27;15.60;;;10.15;;
53652;SDS011;39553;52.954;5.932;2023-03-01T11:27:58;14.75;;;9.85;;
53652;SDS011;39553;52.954;5.932;2023-03-01T11:30:49;16.73;;;9.88;;
53652;SDS011;39553;52.954;5.932;2023-03-01T11:33:17;16.15;;;10.30;;
53652;SDS011;39553;52.954;5.932;2023-03-01T11:36:35;13.32;;;9.30;;
53652;SDS011;39553;52.954;5.932;2023-03-01T11:38:56;17.48;;;10.32;;
53652;SDS011;39553;52.954;5.932;2023-03-01T11:41:36;16.17;;;10.63;;
53652;SDS011;39553;52.954;5.932;2023-03-01T11:44:25;14.77;;;9.82;;
53652;SDS011;39553;52.954;5.932;2023-03-01T12:00:32;14.88;;;8.85;;
53652;SDS011;39553;52.954;5.932;2023-03-01T12:03:23;15.10;;;9.30;;
53652;SDS011;39553;52.954;5.932;2023-03-01T12:06:12;16.00;;;8.88;;
53652;SDS011;39553;52.954;5.932;2023-03-01T12:12:11;13.13;;;9.35;;
53652;SDS011;39553;52.954;5.932;2023-03-01T12:15:07;13.80;;;8.97;;
53652;SDS011;39553;52.954;5.932;2023-03-01T12:17:43;10.88;;;7.68;;
53652;SDS011;39553;52.954;5.932;2023-03-01T12:20:27;14.25;;;8.98;;
53652;SDS011;39553;52.954;5.932;2023-03-01T12:28:51;12.32;;;8.60;;
53652;SDS011;39553;52.954;5.932;2023-03-01T12:31:32;12.68;;;7.85;;
53652;SDS011;39553;52.954;5.932;2023-03-01T12:34:22;14.45;;;9.02;;
53652;SDS011;39553;52.954;5.932;2023-03-01T12:51:05;11.67;;;8.80;;
53652;SDS011;39553;52.954;5.932;2023-03-01T12:53:36;13.05;;;8.43;;
53652;SDS011;39553;52.954;5.932;2023-03-01T12:56:10;13.45;;;9.13;;
53652;SDS011;39553;52.954;5.932;2023-03-01T13:04:06;16.67;;;10.50;;
53652;SDS011;39553;52.954;5.932;2023-03-01T13:20:48;15.57;;;9.60;;
53652;SDS011;39553;52.954;5.932;2023-03-01T13:30:57;15.00;;;9.70;;
53652;SDS011;39553;52.954;5.932;2023-03-01T13:35:52;15.52;;;9.00;;
53652;SDS011;39553;52.954;5.932;2023-03-01T13:38:38;17.77;;;9.18;;
53652;SDS011;39553;52.954;5.932;2023-03-01T13:41:06;16.70;;;10.03;;
53652;SDS011;39553;52.954;5.932;2023-03-01T13:43:34;13.35;;;8.73;;
53652;SDS011;39553;52.954;5.932;2023-03-01T13:46:21;13.60;;;9.27;;
53652;SDS011;39553;52.954;5.932;2023-03-01T13:48:50;16.27;;;9.63;;
53652;SDS011;39553;52.954;5.932;2023-03-01T13:51:21;13.40;;;9.60;;
53652;SDS011;39553;52.954;5.932;2023-03-01T13:53:52;14.20;;;9.38;;
53652;SDS011;39553;52.954;5.932;2023-03-01T13:56:24;14.60;;;9.00;;
53652;SDS011;39553;52.954;5.932;2023-03-01T13:58:54;14.32;;;8.95;;
53652;SDS011;39553;52.954;5.932;2023-03-01T14:01:28;10.88;;;8.30;;
53652;SDS011;39553;52.954;5.932;2023-03-01T14:03:59;13.02;;;8.85;;
53652;SDS011;39553;52.954;5.932;2023-03-01T14:06:29;16.88;;;10.02;;
53652;SDS011;39553;52.954;5.932;2023-03-01T14:09:16;15.63;;;9.70;;
53652;SDS011;39553;52.954;5.932;2023-03-01T14:18:10;13.38;;;8.80;;
53652;SDS011;39553;52.954;5.932;2023-03-01T14:20:52;14.18;;;9.45;;
53652;SDS011;39553;52.954;5.932;2023-03-01T14:23:18;15.70;;;9.52;;
53652;SDS011;39553;52.954;5.932;2023-03-01T14:25:48;13.77;;;8.60;;
53652;SDS011;39553;52.954;5.932;2023-03-01T14:30:50;15.25;;;9.60;;
53652;SDS011;39553;52.954;5.932;2023-03-01T14:33:28;13.60;;;9.55;;
53652;SDS011;39553;52.954;5.932;2023-03-01T14:38:37;15.55;;;9.63;;
53652;SDS011;39553;52.954;5.932;2023-03-01T14:41:11;15.60;;;9.50;;
53652;SDS011;39553;52.954;5.932;2023-03-01T14:43:41;16.80;;;9.52;;
53652;SDS011;39553;52.954;5.932;2023-03-01T14:46:52;19.15;;;10.05;;
53652;SDS011;39553;52.954;5.932;2023-03-01T14:52:07;14.82;;;9.80;;
53652;SDS011;39553;52.954;5.932;2023-03-01T14:54:46;13.85;;;9.90;;
53652;SDS011;39553;52.954;5.932;2023-03-01T14:57:15;18.83;;;10.80;;
53652;SDS011;39553;52.954;5.932;2023-03-01T14:59:47;18.30;;;10.60;;
53652;SDS011;39553;52.954;5.932;2023-03-01T15:02:17;13.90;;;9.93;;
53652;SDS011;39553;52.954;5.932;2023-03-01T15:04:51;15.13;;;9.65;;
53652;SDS011;39553;52.954;5.932;2023-03-01T15:07:21;18.88;;;10.43;;
53652;SDS011;39553;52.954;5.932;2023-03-01T15:09:51;14.90;;;10.07;;
53652;SDS011;39553;52.954;5.932;2023-03-01T15:14:52;16.83;;;9.20;;
53652;SDS011;39553;52.954;5.932;2023-03-01T15:17:26;16.52;;;10.25;;
53652;SDS011;39553;52.954;5.932;2023-03-01T15:20:03;14.88;;;9.85;;
53652;SDS011;39553;52.954;5.932;2023-03-01T15:22:43;18.85;;;9.95;;
53652;SDS011;39553;52.954;5.932;2023-03-01T15:25:17;18.05;;;9.63;;
53652;SDS011;39553;52.954;5.932;2023-03-01T15:27:48;18.15;;;10.07;;
53652;SDS011;39553;52.954;5.932;2023-03-01T15:30:26;17.27;;;11.02;;
53652;SDS011;39553;52.954;5.932;2023-03-01T15:33:19;16.77;;;9.48;;
53652;SDS011;39553;52.954;5.932;2023-03-01T15:35:55;18.52;;;10.15;;
53652;SDS011;39553;52.954;5.932;2023-03-01T15:40:51;15.07;;;9.77;;
53652;SDS011;39553;52.954;5.932;2023-03-01T15:46:23;19.50;;;10.95;;
53652;SDS011;39553;52.954;5.932;2023-03-01T15:48:58;16.90;;;10.52;;
53652;SDS011;39553;52.954;5.932;2023-03-01T15:51:33;15.70;;;9.25;;
53652;SDS011;39553;52.954;5.932;2023-03-01T15:54:20;16.10;;;10.98;;
53652;SDS011;39553;52.954;5.932;2023-03-01T15:56:48;14.50;;;9.57;;
53652;SDS011;39553;52.954;5.932;2023-03-01T15:59:14;18.48;;;10.63;;
53652;SDS011;39553;52.954;5.932;2023-03-01T16:01:40;19.42;;;10.13;;
53652;SDS011;39553;52.954;5.932;2023-03-01T16:04:09;14.88;;;10.23;;
53652;SDS011;39553;52.954;5.932;2023-03-01T16:06:45;14.60;;;9.80;;
53652;SDS011;39553;52.954;5.932;2023-03-01T16:09:19;16.17;;;9.93;;
53652;SDS011;39553;52.954;5.932;2023-03-01T16:11:49;14.50;;;10.35;;
53652;SDS011;39553;52.954;5.932;2023-03-01T16:14:16;18.15;;;10.43;;
53652;SDS011;39553;52.954;5.932;2023-03-01T16:16:42;17.17;;;10.77;;
53652;SDS011;39553;52.954;5.932;2023-03-01T16:19:09;18.83;;;11.35;;
53652;SDS011;39553;52.954;5.932;2023-03-01T16:21:35;16.75;;;10.98;;
53652;SDS011;39553;52.954;5.932;2023-03-01T16:24:01;16.45;;;10.75;;
53652;SDS011;39553;52.954;5.932;2023-03-01T16:26:27;17.00;;;10.48;;
53652;SDS011;39553;52.954;5.932;2023-03-01T16:28:56;16.42;;;10.85;;
53652;SDS011;39553;52.954;5.932;2023-03-01T16:31:23;18.33;;;11.88;;
53652;SDS011;39553;52.954;5.932;2023-03-01T16:33:52;16.55;;;10.77;;
53652;SDS011;39553;52.954;5.932;2023-03-01T16:36:20;16.27;;;10.50;;
53652;SDS011;39553;52.954;5.932;2023-03-01T16:38:49;18.33;;;11.20;;
53652;SDS011;39553;52.954;5.932;2023-03-01T16:41:17;16.58;;;10.98;;
53652;SDS011;39553;52.954;5.932;2023-03-01T16:43:44;18.10;;;11.25;;
53652;SDS011;39553;52.954;5.932;2023-03-01T16:46:22;21.40;;;11.80;;
53652;SDS011;39553;52.954;5.932;2023-03-01T16:48:49;18.42;;;11.98;;
53652;SDS011;39553;52.954;5.932;2023-03-01T16:51:15;19.27;;;11.90;;
53652;SDS011;39553;52.954;5.932;2023-03-01T16:53:41;22.60;;;11.77;;